Commodore Clipper — C6QQ3 — position and weather

sailwx.info

Track history (hours):
 
Tides and Currents Weather Stations Pressure Air Temp Water Temp Dewpoint Dewpoint Depression Visibility Wind Speed Wind Dir Waves Ship Positions

Commodore Clipper

Operator: Condor Marine Services

Last reported at 2017-Apr-30 14:31 UTC. Time now 2017-Apr-30 14:48 UTC.
Position N 50°49' W 001°06'.

Length 130 m; draft 5.2 m.

Type: Ship. MMSI: 308094000.

Date/timePositionNaut miles runAvg speedWind from/ knotsBaromVisibWave heightAir tempDewpointWater temp
2017-Apr-30 14:31N 50°49' W 001°06'0 0.0
2017-Apr-30 13:30N 50°49' W 001°06'0 0.0
2017-Apr-30 13:00N 50°49' W 001°06'0 0.0
2017-Apr-30 12:30N 50°49' W 001°06'0 0.0
2017-Apr-30 12:00N 50°49' W 001°06'0 0.0
2017-Apr-30 11:31N 50°49' W 001°06'0 0.0
2017-Apr-30 11:00N 50°49' W 001°06'0 0.0
2017-Apr-30 10:30N 50°49' W 001°06'0 0.0
2017-Apr-30 10:00N 50°49' W 001°06'0 0.0
2017-Apr-30 09:30N 50°49' W 001°06'0 0.0
2017-Apr-30 09:01N 50°49' W 001°06'0 0.0
2017-Apr-30 08:30N 50°49' W 001°06'0 0.0
2017-Apr-30 08:00N 50°49' W 001°06'0 0.0
2017-Apr-30 07:30N 50°49' W 001°06'0 0.0
2017-Apr-30 07:00N 50°49' W 001°06'1 2.8
2017-Apr-30 06:31N 50°47' W 001°07'713.6
2017-Apr-30 06:01N 50°42' W 001°01'713.4
2017-Apr-30 05:30N 50°36' W 001°07'714.3
2017-Apr-30 05:00N 50°30' W 001°12'713.8
2017-Apr-30 04:30N 50°25' W 001°19'713.6
2017-Apr-30 04:00N 50°20' W 001°27'6514.6
2017-Apr-29 23:31N 49°27' W 002°26'018.0
2017-Apr-29 23:30N 49°26' W 002°26'4 8.0
2017-Apr-29 23:00N 49°27' W 002°32'0 0.0
2017-Apr-29 22:30N 49°27' W 002°32'0 0.0
2017-Apr-29 22:00N 49°27' W 002°32'0 0.0
2017-Apr-29 21:30N 49°27' W 002°32'0 0.9
2017-Apr-29 21:00N 49°27' W 002°31'23 6.2
2017-Apr-29 17:18N 49°11' W 002°07'811.4
2017-Apr-29 16:36N 49°11' W 002°19'215.9
2017-Apr-29 16:27N 49°11' W 002°23'6113.2
2017-Apr-29 11:52N 50°06' W 001°41'615.0
2017-Apr-29 11:26N 50°09' W 001°33'1215.4
2017-Apr-29 10:38N 50°21' W 001°27'214.8
2017-Apr-29 10:28N 50°23' W 001°24'714.4
2017-Apr-29 10:00N 50°27' W 001°17'713.6
2017-Apr-29 09:30N 50°32' W 001°09'714.3
2017-Apr-29 09:00N 50°38' W 001°03'713.8
2017-Apr-29 08:31N 50°45' W 001°05'4 8.5
2017-Apr-29 08:01N 50°49' W 001°06'0 0.1
2017-Apr-29 07:30N 50°49' W 001°06'0 0.0
2017-Apr-29 07:00N 50°49' W 001°06'0 0.0
2017-Apr-29 06:31N 50°49' W 001°06'0 0.0
2017-Apr-29 06:01N 50°49' W 001°06'0 0.0
2017-Apr-29 05:30N 50°49' W 001°06'2 4.2
2017-Apr-29 05:01N 50°47' W 001°06'612.3
2017-Apr-29 04:30N 50°41' W 001°02'713.9
2017-Apr-29 04:00N 50°35' W 001°09'714.0
2017-Apr-29 03:30N 50°29' W 001°15'713.9
2017-Apr-29 02:59N 50°23' W 001°21'5313.4
2017-Apr-28 23:04N 49°39' W 002°06'714.1
2017-Apr-28 22:35N 49°33' W 002°10'15 2.6
2017-Apr-28 16:54N 49°27' W 002°31'6811.3
2017-Apr-28 10:50N 50°19' W 001°22'515.7
2017-Apr-28 10:30N 50°24' W 001°18'714.8
2017-Apr-28 10:00N 50°29' W 001°11'714.5
2017-Apr-28 09:30N 50°35' W 001°04'815.2
2017-Apr-28 09:01N 50°43' W 001°01'713.7
2017-Apr-28 08:30N 50°48' W 001°07'1 1.7
2017-Apr-28 08:01N 50°49' W 001°06'0 0.0
2017-Apr-28 07:30N 50°49' W 001°06'0 0.0
2017-Apr-28 07:00N 50°49' W 001°06'0 0.0
2017-Apr-28 06:30N 50°49' W 001°06'0 0.0
2017-Apr-28 06:01N 50°49' W 001°06'0 0.0
2017-Apr-28 05:31N 50°49' W 001°06'2 3.6
2017-Apr-28 05:01N 50°47' W 001°06'713.5
2017-Apr-28 04:30N 50°41' W 001°01'714.6
2017-Apr-28 04:01N 50°35' W 001°06'713.9
2017-Apr-28 03:30N 50°31' W 001°15'8 0.5
2017-Apr-27 10:31N 50°23' W 001°19'016.5
2017-Apr-27 10:30N 50°23' W 001°19'815.9
2017-Apr-27 10:00N 50°30' W 001°12'815.1
2017-Apr-27 09:30N 50°37' W 001°08'715.0
2017-Apr-27 09:01N 50°43' W 001°01'713.3
2017-Apr-27 08:31N 50°48' W 001°07'1 1.8
2017-Apr-27 08:01N 50°49' W 001°06'0 0.0
2017-Apr-27 07:31N 50°49' W 001°06'0 0.0
2017-Apr-27 07:01N 50°49' W 001°06'0 0.0
2017-Apr-27 06:31N 50°49' W 001°06'0 0.0
2017-Apr-27 06:01N 50°49' W 001°06'0 0.0
2017-Apr-27 05:31N 50°49' W 001°06'1 2.6
2017-Apr-27 05:00N 50°48' W 001°07'713.2
2017-Apr-27 04:31N 50°43' W 000°60'713.4
2017-Apr-27 04:01N 50°36' W 001°03'814.0
2017-Apr-27 03:28N 50°30' W 001°10'1013.5
2017-Apr-27 02:42N 50°22' W 001°19'8 0.5
2017-Apr-26 09:54N 50°29' W 001°16'616.4
2017-Apr-26 09:30N 50°34' W 001°10'815.9
2017-Apr-26 09:00N 50°41' W 001°03'714.4
2017-Apr-26 08:30N 50°48' W 001°07'1 2.6
2017-Apr-26 08:01N 50°49' W 001°06'0 0.0
2017-Apr-26 07:30N 50°49' W 001°06'0 0.0
2017-Apr-26 07:01N 50°49' W 001°06'0 0.0
2017-Apr-26 06:31N 50°49' W 001°06'0 0.0
2017-Apr-26 06:00N 50°49' W 001°06'0 0.0
2017-Apr-26 05:30N 50°49' W 001°06'1 2.9
2017-Apr-26 05:01N 50°47' W 001°07'713.4
2017-Apr-26 04:31N 50°42' W 001°01'1014.0
2017-Apr-26 03:49N 50°33' W 001°08'14 0.8
2017-Apr-25 10:30N 50°23' W 001°23'816.2
2017-Apr-25 10:01N 50°30' W 001°15'815.9
2017-Apr-25 09:30N 50°36' W 001°08'815.9
2017-Apr-25 09:01N 50°44' W 001°03'510.8
2017-Apr-25 08:31N 50°48' W 001°07'1 1.7
2017-Apr-25 08:01N 50°49' W 001°06'0 0.0
2017-Apr-25 07:30N 50°49' W 001°06'0 0.0
2017-Apr-25 07:01N 50°49' W 001°06'0 0.0
2017-Apr-25 06:31N 50°49' W 001°06'0 0.0
2017-Apr-25 06:00N 50°49' W 001°06'0 0.0
2017-Apr-25 05:31N 50°49' W 001°06'1 2.9
2017-Apr-25 05:01N 50°47' W 001°07'713.6
2017-Apr-25 04:31N 50°42' W 001°01'815.4
2017-Apr-25 04:00N 50°35' W 001°06'912.6
2017-Apr-25 03:18N 50°28' W 001°15'10 0.6
2017-Apr-24 10:19N 50°21' W 001°25'618.2
2017-Apr-24 09:58N 50°26' W 001°19'818.0
2017-Apr-24 09:30N 50°33' W 001°12'918.0
2017-Apr-24 09:00N 50°40' W 001°04'713.3
2017-Apr-24 08:30N 50°47' W 001°06'2 4.2
2017-Apr-24 08:01N 50°49' W 001°06'0 0.0
2017-Apr-24 07:30N 50°49' W 001°06'0 0.0
2017-Apr-24 07:00N 50°49' W 001°06'0 0.0
2017-Apr-24 06:30N 50°49' W 001°06'0 0.0
2017-Apr-24 06:00N 50°49' W 001°06'0 0.0
2017-Apr-24 05:31N 50°49' W 001°06'1 2.7
2017-Apr-24 05:00N 50°48' W 001°07'713.3
2017-Apr-24 04:30N 50°42' W 001°01'815.6
2017-Apr-24 04:01N 50°35' W 001°06'1015.3
2017-Apr-24 03:22N 50°27' W 001°15'4512.6
2017-Apr-23 23:49N 49°51' W 001°56'514.8
2017-Apr-23 23:28N 49°46' W 002°00'712.8
2017-Apr-23 22:57N 49°40' W 002°05'614.5
2017-Apr-23 22:30N 49°34' W 002°09'815.7
2017-Apr-23 22:00N 49°30' W 002°19'815.5
2017-Apr-23 21:30N 49°25' W 002°28'3 5.9
2017-Apr-23 21:00N 49°27' W 002°32'0 0.2
2017-Apr-23 20:31N 49°27' W 002°32'914.8
2017-Apr-23 19:54N 49°19' W 002°25'718.5
2017-Apr-23 19:30N 49°13' W 002°20'817.0
2017-Apr-23 19:00N 49°10' W 002°08'1 1.8
2017-Apr-23 18:30N 49°11' W 002°07'0 0.0
2017-Apr-23 18:00N 49°11' W 002°07'0 0.0
2017-Apr-23 17:30N 49°11' W 002°07'0 0.0
2017-Apr-23 17:00N 49°11' W 002°07'1 2.3
2017-Apr-23 16:29N 49°10' W 002°08'4 7.9
2017-Apr-23 16:00N 49°10' W 002°14'713.4
2017-Apr-23 15:31N 49°15' W 002°20'612.4
2017-Apr-23 15:00N 49°21' W 002°17'4014.0
2017-Apr-23 12:08N 49°59' W 001°56'715.6
2017-Apr-23 11:43N 50°03' W 001°48'2715.5
2017-Apr-23 09:59N 50°24' W 001°22'714.7
2017-Apr-23 09:30N 50°29' W 001°15'917.4
2017-Apr-23 09:01N 50°36' W 001°07'815.8
2017-Apr-23 08:31N 50°44' W 001°04'5 9.5
2017-Apr-23 08:00N 50°49' W 001°06'0 0.5
2017-Apr-23 07:30N 50°49' W 001°06'0 0.0
2017-Apr-23 07:00N 50°49' W 001°06'0 0.0
2017-Apr-23 06:30N 50°49' W 001°06'0 0.0
2017-Apr-23 06:00N 50°49' W 001°06'0 0.0
2017-Apr-23 05:30N 50°49' W 001°06'2 3.1
2017-Apr-23 05:00N 50°47' W 001°07'713.1
2017-Apr-23 04:31N 50°41' W 001°03'918.7
2017-Apr-23 04:01N 50°34' W 001°12'911.9
2017-Apr-23 03:15N 50°26' W 001°17'2 0.1
2017-Apr-22 09:35N 50°27' W 001°18'118.9
2017-Apr-22 09:30N 50°28' W 001°16'1019.5
2017-Apr-22 09:00N 50°36' W 001°07'816.0
2017-Apr-22 08:31N 50°44' W 001°04'5 9.6
2017-Apr-22 08:00N 50°49' W 001°06'0 0.4
2017-Apr-22 07:30N 50°49' W 001°06'0 0.0
2017-Apr-22 07:00N 50°49' W 001°06'0 0.0
2017-Apr-22 06:30N 50°49' W 001°06'0 0.0
2017-Apr-22 06:01N 50°49' W 001°06'0 0.0
2017-Apr-22 05:30N 50°49' W 001°06'1 2.9
2017-Apr-22 05:00N 50°47' W 001°07'713.3
2017-Apr-22 04:30N 50°41' W 001°03'918.3
2017-Apr-22 04:00N 50°34' W 001°11'9312.4
2017-Apr-21 20:31N 49°10' W 002°11'017.2
2017-Apr-21 20:30N 49°10' W 002°11'11 3.2
2017-Apr-21 17:12N 49°17' W 002°23'1017.5
2017-Apr-21 16:38N 49°26' W 002°29'25 6.4
2017-Apr-21 12:43N 49°44' W 002°02'315.2
2017-Apr-21 12:30N 49°47' W 001°60'815.7
2017-Apr-21 12:00N 49°54' W 001°54'816.4
2017-Apr-21 11:30N 50°00' W 001°47'918.1
2017-Apr-21 11:00N 50°08' W 001°39'1418.2
2017-Apr-21 10:13N 50°20' W 001°26'918.4
2017-Apr-21 09:44N 50°27' W 001°18'418.5
2017-Apr-21 09:30N 50°30' W 001°14'918.9
2017-Apr-21 09:00N 50°38' W 001°06'714.2
2017-Apr-21 08:30N 50°45' W 001°05'4 7.0
2017-Apr-21 08:00N 50°49' W 001°06'0 0.0
2017-Apr-21 07:30N 50°49' W 001°06'0 0.0
2017-Apr-21 07:00N 50°49' W 001°06'0 0.0
2017-Apr-21 06:30N 50°49' W 001°06'0 0.0
2017-Apr-21 06:00N 50°49' W 001°06'0 0.0
2017-Apr-21 05:30N 50°49' W 001°06'1 2.8
2017-Apr-21 05:01N 50°48' W 001°07'713.5
2017-Apr-21 04:31N 50°41' W 001°03'918.0
2017-Apr-21 04:01N 50°34' W 001°10'814.3
2017-Apr-21 03:29N 50°27' W 001°16'  
Track history (hours):
 
Tides and Currents Weather Stations Pressure Air Temp Water Temp Dewpoint Dewpoint Depression Visibility Wind Speed Wind Dir Waves Ship Positions

Commodore Clipper

Operator: Condor Marine Services

Last reported at 2017-Apr-30 14:31 UTC. Time now 2017-Apr-30 14:48 UTC.
Position N 50°49' W 001°06'.

Length 130 m; draft 5.2 m.

Type: Ship. MMSI: 308094000.

Date/timePositionNaut miles runAvg speedWind from/ knotsBaromVisibWave heightAir tempDewpointWater temp
2017-Apr-30 14:31N 50°49' W 001°06'0 0.0
2017-Apr-30 13:30N 50°49' W 001°06'0 0.0
2017-Apr-30 13:00N 50°49' W 001°06'0 0.0
2017-Apr-30 12:30N 50°49' W 001°06'0 0.0
2017-Apr-30 12:00N 50°49' W 001°06'0 0.0
2017-Apr-30 11:31N 50°49' W 001°06'0 0.0
2017-Apr-30 11:00N 50°49' W 001°06'0 0.0
2017-Apr-30 10:30N 50°49' W 001°06'0 0.0
2017-Apr-30 10:00N 50°49' W 001°06'0 0.0
2017-Apr-30 09:30N 50°49' W 001°06'0 0.0
2017-Apr-30 09:01N 50°49' W 001°06'0 0.0
2017-Apr-30 08:30N 50°49' W 001°06'0 0.0
2017-Apr-30 08:00N 50°49' W 001°06'0 0.0
2017-Apr-30 07:30N 50°49' W 001°06'0 0.0
2017-Apr-30 07:00N 50°49' W 001°06'1 2.8
2017-Apr-30 06:31N 50°47' W 001°07'713.6
2017-Apr-30 06:01N 50°42' W 001°01'713.4
2017-Apr-30 05:30N 50°36' W 001°07'714.3
2017-Apr-30 05:00N 50°30' W 001°12'713.8
2017-Apr-30 04:30N 50°25' W 001°19'713.6
2017-Apr-30 04:00N 50°20' W 001°27'6514.6
2017-Apr-29 23:31N 49°27' W 002°26'018.0
2017-Apr-29 23:30N 49°26' W 002°26'4 8.0
2017-Apr-29 23:00N 49°27' W 002°32'0 0.0
2017-Apr-29 22:30N 49°27' W 002°32'0 0.0
2017-Apr-29 22:00N 49°27' W 002°32'0 0.0
2017-Apr-29 21:30N 49°27' W 002°32'0 0.9
2017-Apr-29 21:00N 49°27' W 002°31'23 6.2
2017-Apr-29 17:18N 49°11' W 002°07'811.4
2017-Apr-29 16:36N 49°11' W 002°19'215.9
2017-Apr-29 16:27N 49°11' W 002°23'6113.2
2017-Apr-29 11:52N 50°06' W 001°41'615.0
2017-Apr-29 11:26N 50°09' W 001°33'1215.4
2017-Apr-29 10:38N 50°21' W 001°27'214.8
2017-Apr-29 10:28N 50°23' W 001°24'714.4
2017-Apr-29 10:00N 50°27' W 001°17'713.6
2017-Apr-29 09:30N 50°32' W 001°09'714.3
2017-Apr-29 09:00N 50°38' W 001°03'713.8
2017-Apr-29 08:31N 50°45' W 001°05'4 8.5
2017-Apr-29 08:01N 50°49' W 001°06'0 0.1
2017-Apr-29 07:30N 50°49' W 001°06'0 0.0
2017-Apr-29 07:00N 50°49' W 001°06'0 0.0
2017-Apr-29 06:31N 50°49' W 001°06'0 0.0
2017-Apr-29 06:01N 50°49' W 001°06'0 0.0
2017-Apr-29 05:30N 50°49' W 001°06'2 4.2
2017-Apr-29 05:01N 50°47' W 001°06'612.3
2017-Apr-29 04:30N 50°41' W 001°02'713.9
2017-Apr-29 04:00N 50°35' W 001°09'714.0
2017-Apr-29 03:30N 50°29' W 001°15'713.9
2017-Apr-29 02:59N 50°23' W 001°21'5313.4
2017-Apr-28 23:04N 49°39' W 002°06'714.1
2017-Apr-28 22:35N 49°33' W 002°10'15 2.6
2017-Apr-28 16:54N 49°27' W 002°31'6811.3
2017-Apr-28 10:50N 50°19' W 001°22'515.7
2017-Apr-28 10:30N 50°24' W 001°18'714.8
2017-Apr-28 10:00N 50°29' W 001°11'714.5
2017-Apr-28 09:30N 50°35' W 001°04'815.2
2017-Apr-28 09:01N 50°43' W 001°01'713.7
2017-Apr-28 08:30N 50°48' W 001°07'1 1.7
2017-Apr-28 08:01N 50°49' W 001°06'0 0.0
2017-Apr-28 07:30N 50°49' W 001°06'0 0.0
2017-Apr-28 07:00N 50°49' W 001°06'0 0.0
2017-Apr-28 06:30N 50°49' W 001°06'0 0.0
2017-Apr-28 06:01N 50°49' W 001°06'0 0.0
2017-Apr-28 05:31N 50°49' W 001°06'2 3.6
2017-Apr-28 05:01N 50°47' W 001°06'713.5
2017-Apr-28 04:30N 50°41' W 001°01'714.6
2017-Apr-28 04:01N 50°35' W 001°06'713.9
2017-Apr-28 03:30N 50°31' W 001°15'8 0.5
2017-Apr-27 10:31N 50°23' W 001°19'016.5
2017-Apr-27 10:30N 50°23' W 001°19'815.9
2017-Apr-27 10:00N 50°30' W 001°12'815.1
2017-Apr-27 09:30N 50°37' W 001°08'715.0
2017-Apr-27 09:01N 50°43' W 001°01'713.3
2017-Apr-27 08:31N 50°48' W 001°07'1 1.8
2017-Apr-27 08:01N 50°49' W 001°06'0 0.0
2017-Apr-27 07:31N 50°49' W 001°06'0 0.0
2017-Apr-27 07:01N 50°49' W 001°06'0 0.0
2017-Apr-27 06:31N 50°49' W 001°06'0 0.0
2017-Apr-27 06:01N 50°49' W 001°06'0 0.0
2017-Apr-27 05:31N 50°49' W 001°06'1 2.6
2017-Apr-27 05:00N 50°48' W 001°07'713.2
2017-Apr-27 04:31N 50°43' W 000°60'713.4
2017-Apr-27 04:01N 50°36' W 001°03'814.0
2017-Apr-27 03:28N 50°30' W 001°10'1013.5
2017-Apr-27 02:42N 50°22' W 001°19'8 0.5
2017-Apr-26 09:54N 50°29' W 001°16'616.4
2017-Apr-26 09:30N 50°34' W 001°10'815.9
2017-Apr-26 09:00N 50°41' W 001°03'714.4
2017-Apr-26 08:30N 50°48' W 001°07'1 2.6
2017-Apr-26 08:01N 50°49' W 001°06'0 0.0
2017-Apr-26 07:30N 50°49' W 001°06'0 0.0
2017-Apr-26 07:01N 50°49' W 001°06'0 0.0
2017-Apr-26 06:31N 50°49' W 001°06'0 0.0
2017-Apr-26 06:00N 50°49' W 001°06'0 0.0
2017-Apr-26 05:30N 50°49' W 001°06'1 2.9
2017-Apr-26 05:01N 50°47' W 001°07'713.4
2017-Apr-26 04:31N 50°42' W 001°01'1014.0
2017-Apr-26 03:49N 50°33' W 001°08'14 0.8
2017-Apr-25 10:30N 50°23' W 001°23'816.2
2017-Apr-25 10:01N 50°30' W 001°15'815.9
2017-Apr-25 09:30N 50°36' W 001°08'815.9
2017-Apr-25 09:01N 50°44' W 001°03'510.8
2017-Apr-25 08:31N 50°48' W 001°07'1 1.7
2017-Apr-25 08:01N 50°49' W 001°06'0 0.0
2017-Apr-25 07:30N 50°49' W 001°06'0 0.0
2017-Apr-25 07:01N 50°49' W 001°06'0 0.0
2017-Apr-25 06:31N 50°49' W 001°06'0 0.0
2017-Apr-25 06:00N 50°49' W 001°06'0 0.0
2017-Apr-25 05:31N 50°49' W 001°06'1 2.9
2017-Apr-25 05:01N 50°47' W 001°07'713.6
2017-Apr-25 04:31N 50°42' W 001°01'815.4
2017-Apr-25 04:00N 50°35' W 001°06'912.6
2017-Apr-25 03:18N 50°28' W 001°15'10 0.6
2017-Apr-24 10:19N 50°21' W 001°25'618.2
2017-Apr-24 09:58N 50°26' W 001°19'818.0
2017-Apr-24 09:30N 50°33' W 001°12'918.0
2017-Apr-24 09:00N 50°40' W 001°04'713.3
2017-Apr-24 08:30N 50°47' W 001°06'2 4.2
2017-Apr-24 08:01N 50°49' W 001°06'0 0.0
2017-Apr-24 07:30N 50°49' W 001°06'0 0.0
2017-Apr-24 07:00N 50°49' W 001°06'0 0.0
2017-Apr-24 06:30N 50°49' W 001°06'0 0.0
2017-Apr-24 06:00N 50°49' W 001°06'0 0.0
2017-Apr-24 05:31N 50°49' W 001°06'1 2.7
2017-Apr-24 05:00N 50°48' W 001°07'713.3
2017-Apr-24 04:30N 50°42' W 001°01'815.6
2017-Apr-24 04:01N 50°35' W 001°06'1015.3
2017-Apr-24 03:22N 50°27' W 001°15'4512.6
2017-Apr-23 23:49N 49°51' W 001°56'514.8
2017-Apr-23 23:28N 49°46' W 002°00'712.8
2017-Apr-23 22:57N 49°40' W 002°05'614.5
2017-Apr-23 22:30N 49°34' W 002°09'815.7
2017-Apr-23 22:00N 49°30' W 002°19'815.5
2017-Apr-23 21:30N 49°25' W 002°28'3 5.9
2017-Apr-23 21:00N 49°27' W 002°32'0 0.2
2017-Apr-23 20:31N 49°27' W 002°32'914.8
2017-Apr-23 19:54N 49°19' W 002°25'718.5
2017-Apr-23 19:30N 49°13' W 002°20'817.0
2017-Apr-23 19:00N 49°10' W 002°08'1 1.8
2017-Apr-23 18:30N 49°11' W 002°07'0 0.0
2017-Apr-23 18:00N 49°11' W 002°07'0 0.0
2017-Apr-23 17:30N 49°11' W 002°07'0 0.0
2017-Apr-23 17:00N 49°11' W 002°07'1 2.3
2017-Apr-23 16:29N 49°10' W 002°08'4 7.9
2017-Apr-23 16:00N 49°10' W 002°14'713.4
2017-Apr-23 15:31N 49°15' W 002°20'612.4
2017-Apr-23 15:00N 49°21' W 002°17'4014.0
2017-Apr-23 12:08N 49°59' W 001°56'715.6
2017-Apr-23 11:43N 50°03' W 001°48'2715.5
2017-Apr-23 09:59N 50°24' W 001°22'714.7
2017-Apr-23 09:30N 50°29' W 001°15'917.4
2017-Apr-23 09:01N 50°36' W 001°07'815.8
2017-Apr-23 08:31N 50°44' W 001°04'5 9.5
2017-Apr-23 08:00N 50°49' W 001°06'0 0.5
2017-Apr-23 07:30N 50°49' W 001°06'0 0.0
2017-Apr-23 07:00N 50°49' W 001°06'0 0.0
2017-Apr-23 06:30N 50°49' W 001°06'0 0.0
2017-Apr-23 06:00N 50°49' W 001°06'0 0.0
2017-Apr-23 05:30N 50°49' W 001°06'2 3.1
2017-Apr-23 05:00N 50°47' W 001°07'713.1
2017-Apr-23 04:31N 50°41' W 001°03'918.7
2017-Apr-23 04:01N 50°34' W 001°12'911.9
2017-Apr-23 03:15N 50°26' W 001°17'2 0.1
2017-Apr-22 09:35N 50°27' W 001°18'118.9
2017-Apr-22 09:30N 50°28' W 001°16'1019.5
2017-Apr-22 09:00N 50°36' W 001°07'816.0
2017-Apr-22 08:31N 50°44' W 001°04'5 9.6
2017-Apr-22 08:00N 50°49' W 001°06'0 0.4
2017-Apr-22 07:30N 50°49' W 001°06'0 0.0
2017-Apr-22 07:00N 50°49' W 001°06'0 0.0
2017-Apr-22 06:30N 50°49' W 001°06'0 0.0
2017-Apr-22 06:01N 50°49' W 001°06'0 0.0
2017-Apr-22 05:30N 50°49' W 001°06'1 2.9
2017-Apr-22 05:00N 50°47' W 001°07'713.3
2017-Apr-22 04:30N 50°41' W 001°03'918.3
2017-Apr-22 04:00N 50°34' W 001°11'9312.4
2017-Apr-21 20:31N 49°10' W 002°11'017.2
2017-Apr-21 20:30N 49°10' W 002°11'11 3.2
2017-Apr-21 17:12N 49°17' W 002°23'1017.5
2017-Apr-21 16:38N 49°26' W 002°29'25 6.4
2017-Apr-21 12:43N 49°44' W 002°02'315.2
2017-Apr-21 12:30N 49°47' W 001°60'815.7
2017-Apr-21 12:00N 49°54' W 001°54'816.4
2017-Apr-21 11:30N 50°00' W 001°47'918.1
2017-Apr-21 11:00N 50°08' W 001°39'1418.2
2017-Apr-21 10:13N 50°20' W 001°26'918.4
2017-Apr-21 09:44N 50°27' W 001°18'418.5
2017-Apr-21 09:30N 50°30' W 001°14'918.9
2017-Apr-21 09:00N 50°38' W 001°06'714.2
2017-Apr-21 08:30N 50°45' W 001°05'4 7.0
2017-Apr-21 08:00N 50°49' W 001°06'0 0.0
2017-Apr-21 07:30N 50°49' W 001°06'0 0.0
2017-Apr-21 07:00N 50°49' W 001°06'0 0.0
2017-Apr-21 06:30N 50°49' W 001°06'0 0.0
2017-Apr-21 06:00N 50°49' W 001°06'0 0.0
2017-Apr-21 05:30N 50°49' W 001°06'1 2.8
2017-Apr-21 05:01N 50°48' W 001°07'713.5
2017-Apr-21 04:31N 50°41' W 001°03'918.0
2017-Apr-21 04:01N 50°34' W 001°10'814.3
2017-Apr-21 03:29N 50°27' W 001°16'  

Dump ship's entire track history